sensor_id;sensor_type;location;lat;lon;timestamp;pressure;altitude;pressure_sealevel;temperature;humidity
29385;BME280;16367;48.736;9.218;2022-11-18T00:01:38;-23394.19;;;7.14;100.00
29385;BME280;16367;48.736;9.218;2022-11-18T00:03:42;-23395.78;;;7.19;100.00
29385;BME280;16367;48.736;9.218;2022-11-18T00:05:52;-23395.78;;;7.19;100.00
29385;BME280;16367;48.736;9.218;2022-11-18T00:07:55;-23395.78;;;7.19;100.00
29385;BME280;16367;48.736;9.218;2022-11-18T00:09:57;-23396.72;;;7.22;100.00
29385;BME280;16367;48.736;9.218;2022-11-18T00:12:02;-23394.34;;;7.14;100.00
29385;BME280;16367;48.736;9.218;2022-11-18T00:14:24;-23394.66;;;7.15;100.00
29385;BME280;16367;48.736;9.218;2022-11-18T00:16:28;-23394.50;;;7.15;100.00
29385;BME280;16367;48.736;9.218;2022-11-18T00:18:31;-23395.31;;;7.17;100.00
29385;BME280;16367;48.736;9.218;2022-11-18T00:20:34;-23394.50;;;7.15;100.00
29385;BME280;16367;48.736;9.218;2022-11-18T00:22:36;-23396.09;;;7.20;100.00
29385;BME280;16367;48.736;9.218;2022-11-18T00:24:39;-23395.78;;;7.19;100.00
29385;BME280;16367;48.736;9.218;2022-11-18T00:26:42;-23396.09;;;7.20;100.00
29385;BME280;16367;48.736;9.218;2022-11-18T00:28:46;-23396.41;;;7.21;100.00
29385;BME280;16367;48.736;9.218;2022-11-18T00:30:49;-23396.72;;;7.22;100.00
29385;BME280;16367;48.736;9.218;2022-11-18T00:32:51;-23394.03;;;7.13;100.00
29385;BME280;16367;48.736;9.218;2022-11-18T00:34:54;-23393.41;;;7.11;100.00
29385;BME280;16367;48.736;9.218;2022-11-18T00:36:57;-23395.16;;;7.17;100.00
29385;BME280;16367;48.736;9.218;2022-11-18T00:39:00;-23393.22;;;7.11;100.00
29385;BME280;16367;48.736;9.218;2022-11-18T00:41:04;-23394.81;;;7.16;100.00
29385;BME280;16367;48.736;9.218;2022-11-18T00:43:07;-23396.56;;;7.21;100.00
29385;BME280;16367;48.736;9.218;2022-11-18T00:45:10;-23397.84;;;7.25;100.00
29385;BME280;16367;48.736;9.218;2022-11-18T00:47:13;-23393.56;;;7.12;100.00
29385;BME280;16367;48.736;9.218;2022-11-18T00:49:16;-23394.50;;;7.15;100.00
29385;BME280;16367;48.736;9.218;2022-11-18T00:51:19;-23394.19;;;7.14;100.00
29385;BME280;16367;48.736;9.218;2022-11-18T00:53:23;-23394.34;;;7.14;100.00
29385;BME280;16367;48.736;9.218;2022-11-18T00:55:26;-23393.56;;;7.12;100.00
29385;BME280;16367;48.736;9.218;2022-11-18T00:57:29;-23394.50;;;7.15;100.00
29385;BME280;16367;48.736;9.218;2022-11-18T00:59:32;-23395.47;;;7.18;100.00
29385;BME280;16367;48.736;9.218;2022-11-18T01:01:36;-23394.81;;;7.16;100.00
29385;BME280;16367;48.736;9.218;2022-11-18T01:03:39;-23393.88;;;7.13;100.00
29385;BME280;16367;48.736;9.218;2022-11-18T01:05:42;-23393.88;;;7.13;100.00
29385;BME280;16367;48.736;9.218;2022-11-18T01:07:45;-23393.88;;;7.13;100.00
29385;BME280;16367;48.736;9.218;2022-11-18T01:09:48;-23394.03;;;7.13;100.00
29385;BME280;16367;48.736;9.218;2022-11-18T01:11:51;-23393.88;;;7.13;100.00
29385;BME280;16367;48.736;9.218;2022-11-18T01:14:11;-23392.28;;;7.08;100.00
29385;BME280;16367;48.736;9.218;2022-11-18T01:16:17;-23392.91;;;7.10;100.00
29385;BME280;16367;48.736;9.218;2022-11-18T01:18:23;-23394.81;;;7.16;100.00
29385;BME280;16367;48.736;9.218;2022-11-18T01:20:27;-23395.47;;;7.18;100.00
29385;BME280;16367;48.736;9.218;2022-11-18T01:22:29;-23397.69;;;7.25;100.00
29385;BME280;16367;48.736;9.218;2022-11-18T01:24:33;-23394.19;;;7.14;100.00
29385;BME280;16367;48.736;9.218;2022-11-18T01:26:36;-23394.19;;;7.14;100.00
29385;BME280;16367;48.736;9.218;2022-11-18T01:28:39;-23394.66;;;7.15;100.00
29385;BME280;16367;48.736;9.218;2022-11-18T01:30:41;-23395.94;;;7.19;100.00
29385;BME280;16367;48.736;9.218;2022-11-18T01:32:44;-23395.16;;;7.17;100.00
29385;BME280;16367;48.736;9.218;2022-11-18T01:34:48;-23396.88;;;7.22;100.00
29385;BME280;16367;48.736;9.218;2022-11-18T01:36:51;-23396.09;;;7.20;100.00
29385;BME280;16367;48.736;9.218;2022-11-18T01:38:54;-23393.72;;;7.12;100.00
29385;BME280;16367;48.736;9.218;2022-11-18T01:40:57;-23394.66;;;7.15;100.00
29385;BME280;16367;48.736;9.218;2022-11-18T01:43:00;-23396.56;;;7.21;100.00
29385;BME280;16367;48.736;9.218;2022-11-18T01:45:13;-23398.31;;;7.27;100.00
29385;BME280;16367;48.736;9.218;2022-11-18T01:47:18;-23395.00;;;7.16;100.00
29385;BME280;16367;48.736;9.218;2022-11-18T01:49:21;-23395.63;;;7.18;100.00
29385;BME280;16367;48.736;9.218;2022-11-18T01:51:28;-23396.72;;;7.22;100.00
29385;BME280;16367;48.736;9.218;2022-11-18T01:53:35;-23394.50;;;7.15;100.00
29385;BME280;16367;48.736;9.218;2022-11-18T01:55:42;-23398.16;;;7.26;100.00
29385;BME280;16367;48.736;9.218;2022-11-18T01:57:50;-23397.84;;;7.25;100.00
29385;BME280;16367;48.736;9.218;2022-11-18T01:59:59;-23393.09;;;7.10;100.00
29385;BME280;16367;48.736;9.218;2022-11-18T02:02:07;-23393.41;;;7.11;100.00
29385;BME280;16367;48.736;9.218;2022-11-18T02:04:13;-23396.72;;;7.22;100.00
29385;BME280;16367;48.736;9.218;2022-11-18T02:06:16;-23395.63;;;7.18;100.00
29385;BME280;16367;48.736;9.218;2022-11-18T02:08:21;-23395.47;;;7.18;100.00
29385;BME280;16367;48.736;9.218;2022-11-18T02:10:24;-23395.00;;;7.16;100.00
29385;BME280;16367;48.736;9.218;2022-11-18T02:12:27;-23399.28;;;7.30;100.00
29385;BME280;16367;48.736;9.218;2022-11-18T02:14:33;-23396.41;;;7.21;100.00
29385;BME280;16367;48.736;9.218;2022-11-18T02:16:48;-23399.91;;;7.32;100.00
29385;BME280;16367;48.736;9.218;2022-11-18T02:18:54;-23398.78;;;7.28;100.00
29385;BME280;16367;48.736;9.218;2022-11-18T02:21:00;-23400.22;;;7.33;100.00
29385;BME280;16367;48.736;9.218;2022-11-18T02:26:17;-23398.00;;;7.26;100.00
29385;BME280;16367;48.736;9.218;2022-11-18T02:28:35;-23398.97;;;7.29;100.00
29385;BME280;16367;48.736;9.218;2022-11-18T02:30:43;-23400.22;;;7.33;100.00
29385;BME280;16367;48.736;9.218;2022-11-18T02:32:55;-23396.72;;;7.22;100.00
29385;BME280;16367;48.736;9.218;2022-11-18T02:35:04;-23395.94;;;7.19;100.00
29385;BME280;16367;48.736;9.218;2022-11-18T02:37:15;-23400.72;;;7.34;100.00
29385;BME280;16367;48.736;9.218;2022-11-18T02:39:22;-23398.97;;;7.29;100.00
29385;BME280;16367;48.736;9.218;2022-11-18T02:41:30;-23402.13;;;7.39;100.00
29385;BME280;16367;48.736;9.218;2022-11-18T02:43:38;-23402.78;;;7.41;100.00
29385;BME280;16367;48.736;9.218;2022-11-18T02:45:47;-23403.09;;;7.42;100.00
29385;BME280;16367;48.736;9.218;2022-11-18T02:47:51;-23402.63;;;7.40;100.00
29385;BME280;16367;48.736;9.218;2022-11-18T02:49:59;-23403.56;;;7.43;100.00
29385;BME280;16367;48.736;9.218;2022-11-18T02:52:04;-23405.16;;;7.48;100.00
29385;BME280;16367;48.736;9.218;2022-11-18T02:54:09;-23400.72;;;7.34;100.00
29385;BME280;16367;48.736;9.218;2022-11-18T02:56:14;-23401.66;;;7.37;100.00
29385;BME280;16367;48.736;9.218;2022-11-18T02:58:19;-23398.97;;;7.29;100.00
29385;BME280;16367;48.736;9.218;2022-11-18T03:00:22;-23398.00;;;7.26;100.00
29385;BME280;16367;48.736;9.218;2022-11-18T03:02:26;-23400.88;;;7.35;100.00
29385;BME280;16367;48.736;9.218;2022-11-18T03:04:30;-23401.03;;;7.35;100.00
29385;BME280;16367;48.736;9.218;2022-11-18T03:06:36;-23397.06;;;7.23;100.00
29385;BME280;16367;48.736;9.218;2022-11-18T03:08:45;-23398.97;;;7.29;100.00
29385;BME280;16367;48.736;9.218;2022-11-18T03:10:52;-23399.13;;;7.29;100.00
29385;BME280;16367;48.736;9.218;2022-11-18T03:13:04;-23402.44;;;7.40;100.00
29385;BME280;16367;48.736;9.218;2022-11-18T03:15:17;-23396.41;;;7.21;100.00
29385;BME280;16367;48.736;9.218;2022-11-18T03:17:32;-23399.13;;;7.29;100.00
29385;BME280;16367;48.736;9.218;2022-11-18T03:19:52;-23398.00;;;7.26;100.00
29385;BME280;16367;48.736;9.218;2022-11-18T03:22:04;-23396.09;;;7.20;100.00
29385;BME280;16367;48.736;9.218;2022-11-18T03:24:13;-23399.13;;;7.29;100.00
29385;BME280;16367;48.736;9.218;2022-11-18T03:26:23;-23395.16;;;7.17;100.00
29385;BME280;16367;48.736;9.218;2022-11-18T03:28:31;-23401.19;;;7.36;100.00
29385;BME280;16367;48.736;9.218;2022-11-18T03:30:39;-23397.06;;;7.23;100.00
29385;BME280;16367;48.736;9.218;2022-11-18T03:32:49;-23396.56;;;7.21;100.00
29385;BME280;16367;48.736;9.218;2022-11-18T03:34:56;-23399.91;;;7.32;100.00
29385;BME280;16367;48.736;9.218;2022-11-18T03:37:02;-23398.66;;;7.28;100.00
29385;BME280;16367;48.736;9.218;2022-11-18T03:39:12;-23401.50;;;7.37;100.00
29385;BME280;16367;48.736;9.218;2022-11-18T03:41:17;-23404.03;;;7.45;100.00
29385;BME280;16367;48.736;9.218;2022-11-18T03:43:25;-23405.63;;;7.50;100.00
29385;BME280;16367;48.736;9.218;2022-11-18T03:45:33;-23403.09;;;7.42;100.00
29385;BME280;16367;48.736;9.218;2022-11-18T03:47:39;-23402.78;;;7.41;100.00
29385;BME280;16367;48.736;9.218;2022-11-18T03:49:48;-23401.97;;;7.38;100.00
29385;BME280;16367;48.736;9.218;2022-11-18T03:51:54;-23403.72;;;7.44;100.00
29385;BME280;16367;48.736;9.218;2022-11-18T03:54:13;-23400.22;;;7.33;100.00
29385;BME280;16367;48.736;9.218;2022-11-18T03:56:20;-23402.13;;;7.39;100.00
29385;BME280;16367;48.736;9.218;2022-11-18T03:58:28;-23401.66;;;7.37;100.00
29385;BME280;16367;48.736;9.218;2022-11-18T04:00:36;-23401.81;;;7.38;100.00
29385;BME280;16367;48.736;9.218;2022-11-18T04:02:41;-23405.94;;;7.51;100.00
29385;BME280;16367;48.736;9.218;2022-11-18T04:04:47;-23401.66;;;7.37;100.00
29385;BME280;16367;48.736;9.218;2022-11-18T04:06:56;-23399.59;;;7.31;100.00
29385;BME280;16367;48.736;9.218;2022-11-18T04:09:05;-23398.31;;;7.27;100.00
29385;BME280;16367;48.736;9.218;2022-11-18T04:11:14;-23395.47;;;7.18;100.00
29385;BME280;16367;48.736;9.218;2022-11-18T04:13:35;-23398.00;;;7.26;100.00
29385;BME280;16367;48.736;9.218;2022-11-18T04:15:40;-23395.47;;;7.18;100.00
29385;BME280;16367;48.736;9.218;2022-11-18T04:17:44;-23397.06;;;7.23;100.00
29385;BME280;16367;48.736;9.218;2022-11-18T04:19:48;-23393.72;;;7.12;100.00
29385;BME280;16367;48.736;9.218;2022-11-18T04:21:51;-23394.03;;;7.13;100.00
29385;BME280;16367;48.736;9.218;2022-11-18T04:23:54;-23398.00;;;7.26;100.00
29385;BME280;16367;48.736;9.218;2022-11-18T04:25:56;-23397.69;;;7.25;100.00
29385;BME280;16367;48.736;9.218;2022-11-18T04:27:59;-23399.59;;;7.31;100.00
29385;BME280;16367;48.736;9.218;2022-11-18T04:30:02;-23397.69;;;7.25;100.00
29385;BME280;16367;48.736;9.218;2022-11-18T04:32:05;-23396.41;;;7.21;100.00
29385;BME280;16367;48.736;9.218;2022-11-18T04:34:08;-23397.53;;;7.24;100.00
29385;BME280;16367;48.736;9.218;2022-11-18T04:36:13;-23395.47;;;7.18;100.00
29385;BME280;16367;48.736;9.218;2022-11-18T04:38:16;-23391.97;;;7.07;100.00
29385;BME280;16367;48.736;9.218;2022-11-18T04:40:22;-23389.75;;;7.00;100.00
29385;BME280;16367;48.736;9.218;2022-11-18T04:42:25;-23390.06;;;7.01;100.00
29385;BME280;16367;48.736;9.218;2022-11-18T04:44:29;-23388.78;;;6.97;100.00
29385;BME280;16367;48.736;9.218;2022-11-18T04:46:32;-23388.78;;;6.97;100.00
29385;BME280;16367;48.736;9.218;2022-11-18T04:48:40;-23385.13;;;6.85;100.00
29385;BME280;16367;48.736;9.218;2022-11-18T04:50:43;-23384.03;;;6.82;100.00
29385;BME280;16367;48.736;9.218;2022-11-18T04:52:47;-23381.78;;;6.74;100.00
29385;BME280;16367;48.736;9.218;2022-11-18T04:54:50;-23381.97;;;6.75;100.00
29385;BME280;16367;48.736;9.218;2022-11-18T04:56:54;-23383.38;;;6.80;100.00
29385;BME280;16367;48.736;9.218;2022-11-18T04:58:57;-23381.16;;;6.72;100.00
29385;BME280;16367;48.736;9.218;2022-11-18T05:01:00;-23381.16;;;6.72;100.00
29385;BME280;16367;48.736;9.218;2022-11-18T05:03:03;-23382.13;;;6.75;100.00
29385;BME280;16367;48.736;9.218;2022-11-18T05:05:06;-23379.56;;;6.67;100.00
29385;BME280;16367;48.736;9.218;2022-11-18T05:07:13;-23379.25;;;6.66;100.00
29385;BME280;16367;48.736;9.218;2022-11-18T05:09:18;-23377.19;;;6.60;100.00
29385;BME280;16367;48.736;9.218;2022-11-18T05:11:21;-23383.06;;;6.78;100.00
29385;BME280;16367;48.736;9.218;2022-11-18T05:13:42;-23379.56;;;6.67;100.00
29385;BME280;16367;48.736;9.218;2022-11-18T05:15:44;-23376.22;;;6.57;100.00
29385;BME280;16367;48.736;9.218;2022-11-18T05:17:47;-23376.06;;;6.56;100.00
29385;BME280;16367;48.736;9.218;2022-11-18T05:19:50;-23377.66;;;6.61;100.00
29385;BME280;16367;48.736;9.218;2022-11-18T05:21:53;-23375.59;;;6.55;100.00
29385;BME280;16367;48.736;9.218;2022-11-18T05:23:57;-23371.94;;;6.43;100.00
29385;BME280;16367;48.736;9.218;2022-11-18T05:26:03;-23371.31;;;6.41;100.00
29385;BME280;16367;48.736;9.218;2022-11-18T05:28:06;-23369.72;;;6.36;100.00
29385;BME280;16367;48.736;9.218;2022-11-18T05:30:09;-23371.94;;;6.43;100.00
29385;BME280;16367;48.736;9.218;2022-11-18T05:32:12;-23368.44;;;6.32;100.00
29385;BME280;16367;48.736;9.218;2022-11-18T05:34:15;-23365.56;;;6.23;100.00
29385;BME280;16367;48.736;9.218;2022-11-18T05:36:20;-23366.06;;;6.25;100.00
29385;BME280;16367;48.736;9.218;2022-11-18T05:38:23;-23365.44;;;6.23;100.00
29385;BME280;16367;48.736;9.218;2022-11-18T05:40:25;-23369.41;;;6.35;100.00
29385;BME280;16367;48.736;9.218;2022-11-18T05:42:29;-23368.28;;;6.32;100.00
29385;BME280;16367;48.736;9.218;2022-11-18T05:44:49;-23371.94;;;6.43;100.00
29385;BME280;16367;48.736;9.218;2022-11-18T05:46:58;-23370.34;;;6.38;100.00
29385;BME280;16367;48.736;9.218;2022-11-18T05:49:01;-23368.75;;;6.33;100.00
29385;BME280;16367;48.736;9.218;2022-11-18T05:51:04;-23367.34;;;6.29;100.00
29385;BME280;16367;48.736;9.218;2022-11-18T05:53:07;-23366.84;;;6.27;100.00
29385;BME280;16367;48.736;9.218;2022-11-18T05:55:10;-23369.06;;;6.34;100.00
29385;BME280;16367;48.736;9.218;2022-11-18T05:57:15;-23368.44;;;6.32;100.00
29385;BME280;16367;48.736;9.218;2022-11-18T05:59:19;-23369.41;;;6.35;100.00
29385;BME280;16367;48.736;9.218;2022-11-18T06:01:25;-23373.38;;;6.48;100.00
29385;BME280;16367;48.736;9.218;2022-11-18T06:03:31;-23371.00;;;6.40;100.00
29385;BME280;16367;48.736;9.218;2022-11-18T06:05:35;-23375.75;;;6.55;100.00
29385;BME280;16367;48.736;9.218;2022-11-18T06:07:40;-23369.72;;;6.36;100.00
29385;BME280;16367;48.736;9.218;2022-11-18T06:09:46;-23370.34;;;6.38;100.00
29385;BME280;16367;48.736;9.218;2022-11-18T06:11:53;-23371.31;;;6.41;100.00
29385;BME280;16367;48.736;9.218;2022-11-18T06:14:01;-23369.25;;;6.35;100.00
29385;BME280;16367;48.736;9.218;2022-11-18T06:16:06;-23368.75;;;6.33;100.00
29385;BME280;16367;48.736;9.218;2022-11-18T06:18:11;-23367.16;;;6.28;100.00
29385;BME280;16367;48.736;9.218;2022-11-18T06:20:18;-23369.06;;;6.34;100.00
29385;BME280;16367;48.736;9.218;2022-11-18T06:22:22;-23368.91;;;6.34;100.00
29385;BME280;16367;48.736;9.218;2022-11-18T06:24:25;-23367.81;;;6.30;100.00
29385;BME280;16367;48.736;9.218;2022-11-18T06:26:28;-23368.13;;;6.31;100.00
29385;BME280;16367;48.736;9.218;2022-11-18T06:28:31;-23369.41;;;6.35;100.00
29385;BME280;16367;48.736;9.218;2022-11-18T06:30:34;-23372.25;;;6.44;100.00
29385;BME280;16367;48.736;9.218;2022-11-18T06:32:38;-23373.53;;;6.48;100.00
29385;BME280;16367;48.736;9.218;2022-11-18T06:34:41;-23375.75;;;6.55;100.00
29385;BME280;16367;48.736;9.218;2022-11-18T06:36:43;-23372.91;;;6.46;100.00
29385;BME280;16367;48.736;9.218;2022-11-18T06:38:46;-23373.38;;;6.48;100.00
29385;BME280;16367;48.736;9.218;2022-11-18T06:40:49;-23374.50;;;6.51;100.00
29385;BME280;16367;48.736;9.218;2022-11-18T06:42:52;-23374.63;;;6.52;100.00
29385;BME280;16367;48.736;9.218;2022-11-18T06:45:13;-23373.69;;;6.49;100.00
29385;BME280;16367;48.736;9.218;2022-11-18T06:47:15;-23373.22;;;6.47;100.00
29385;BME280;16367;48.736;9.218;2022-11-18T06:49:19;-23374.81;;;6.52;100.00
29385;BME280;16367;48.736;9.218;2022-11-18T06:51:22;-23372.56;;;6.45;100.00
29385;BME280;16367;48.736;9.218;2022-11-18T06:53:25;-23372.56;;;6.45;100.00
29385;BME280;16367;48.736;9.218;2022-11-18T06:55:27;-23375.75;;;6.55;100.00
29385;BME280;16367;48.736;9.218;2022-11-18T06:57:30;-23373.38;;;6.48;100.00
29385;BME280;16367;48.736;9.218;2022-11-18T06:59:33;-23375.59;;;6.55;100.00
29385;BME280;16367;48.736;9.218;2022-11-18T07:01:38;-23378.63;;;6.64;100.00
29385;BME280;16367;48.736;9.218;2022-11-18T07:03:43;-23374.00;;;6.50;100.00
29385;BME280;16367;48.736;9.218;2022-11-18T07:05:47;-23377.66;;;6.61;100.00
29385;BME280;16367;48.736;9.218;2022-11-18T07:07:50;-23377.50;;;6.61;100.00
29385;BME280;16367;48.736;9.218;2022-11-18T07:09:53;-23376.06;;;6.56;100.00
29385;BME280;16367;48.736;9.218;2022-11-18T07:11:56;-23376.06;;;6.56;100.00
29385;BME280;16367;48.736;9.218;2022-11-18T07:13:58;-23377.66;;;6.61;100.00
29385;BME280;16367;48.736;9.218;2022-11-18T07:16:03;-23380.69;;;6.71;100.00
29385;BME280;16367;48.736;9.218;2022-11-18T07:18:06;-23378.13;;;6.63;100.00
29385;BME280;16367;48.736;9.218;2022-11-18T07:20:10;-23382.13;;;6.75;100.00
29385;BME280;16367;48.736;9.218;2022-11-18T07:22:14;-23381.16;;;6.72;100.00
29385;BME280;16367;48.736;9.218;2022-11-18T07:24:17;-23380.22;;;6.69;100.00
29385;BME280;16367;48.736;9.218;2022-11-18T07:26:20;-23377.34;;;6.60;100.00
29385;BME280;16367;48.736;9.218;2022-11-18T07:28:23;-23378.31;;;6.63;100.00
29385;BME280;16367;48.736;9.218;2022-11-18T07:30:26;-23378.78;;;6.65;100.00
29385;BME280;16367;48.736;9.218;2022-11-18T07:32:28;-23379.56;;;6.67;100.00
29385;BME280;16367;48.736;9.218;2022-11-18T07:34:31;-23378.94;;;6.65;100.00
29385;BME280;16367;48.736;9.218;2022-11-18T07:36:34;-23376.41;;;6.57;100.00
29385;BME280;16367;48.736;9.218;2022-11-18T07:38:39;-23382.44;;;6.76;100.00
29385;BME280;16367;48.736;9.218;2022-11-18T07:40:42;-23378.13;;;6.63;100.00
29385;BME280;16367;48.736;9.218;2022-11-18T07:42:44;-23381.00;;;6.72;100.00
29385;BME280;16367;48.736;9.218;2022-11-18T07:44:47;-23379.56;;;6.67;100.00
29385;BME280;16367;48.736;9.218;2022-11-18T07:46:50;-23379.25;;;6.66;100.00
29385;BME280;16367;48.736;9.218;2022-11-18T07:48:54;-23381.31;;;6.73;100.00
29385;BME280;16367;48.736;9.218;2022-11-18T07:50:59;-23373.69;;;6.49;100.00
29385;BME280;16367;48.736;9.218;2022-11-18T07:53:02;-23378.31;;;6.63;100.00
29385;BME280;16367;48.736;9.218;2022-11-18T07:55:07;-23385.59;;;6.87;100.00
29385;BME280;16367;48.736;9.218;2022-11-18T07:57:10;-23379.56;;;6.67;100.00
29385;BME280;16367;48.736;9.218;2022-11-18T07:59:13;-23377.97;;;6.62;100.00
29385;BME280;16367;48.736;9.218;2022-11-18T08:01:17;-23378.94;;;6.65;100.00
29385;BME280;16367;48.736;9.218;2022-11-18T08:03:24;-23381.31;;;6.73;100.00
29385;BME280;16367;48.736;9.218;2022-11-18T08:05:26;-23377.81;;;6.62;100.00
29385;BME280;16367;48.736;9.218;2022-11-18T08:07:30;-23380.06;;;6.69;100.00
29385;BME280;16367;48.736;9.218;2022-11-18T08:09:32;-23386.41;;;6.89;100.00
29385;BME280;16367;48.736;9.218;2022-11-18T08:11:37;-23381.78;;;6.74;100.00
29385;BME280;16367;48.736;9.218;2022-11-18T08:13:41;-23383.06;;;6.78;100.00
29385;BME280;16367;48.736;9.218;2022-11-18T08:15:44;-23388.47;;;6.96;100.00
29385;BME280;16367;48.736;9.218;2022-11-18T08:17:47;-23390.53;;;7.02;100.00
29385;BME280;16367;48.736;9.218;2022-11-18T08:19:49;-23391.00;;;7.04;100.00
29385;BME280;16367;48.736;9.218;2022-11-18T08:21:52;-23390.53;;;7.02;100.00
29385;BME280;16367;48.736;9.218;2022-11-18T08:23:56;-23391.81;;;7.06;100.00
29385;BME280;16367;48.736;9.218;2022-11-18T08:26:06;-23388.78;;;6.97;100.00
29385;BME280;16367;48.736;9.218;2022-11-18T08:28:11;-23392.91;;;7.10;100.00
29385;BME280;16367;48.736;9.218;2022-11-18T08:30:15;-23399.13;;;7.29;100.00
29385;BME280;16367;48.736;9.218;2022-11-18T08:32:19;-23398.00;;;7.26;100.00
29385;BME280;16367;48.736;9.218;2022-11-18T08:34:21;-23398.66;;;7.28;100.00
29385;BME280;16367;48.736;9.218;2022-11-18T08:36:26;-23393.88;;;7.13;100.00
29385;BME280;16367;48.736;9.218;2022-11-18T08:38:29;-23389.75;;;7.00;100.00
29385;BME280;16367;48.736;9.218;2022-11-18T08:40:32;-23395.47;;;7.18;100.00
29385;BME280;16367;48.736;9.218;2022-11-18T08:42:35;-23390.53;;;7.02;100.00
29385;BME280;16367;48.736;9.218;2022-11-18T08:44:40;-23395.63;;;7.18;100.00
29385;BME280;16367;48.736;9.218;2022-11-18T08:46:43;-23394.19;;;7.14;100.00
29385;BME280;16367;48.736;9.218;2022-11-18T08:48:47;-23396.72;;;7.22;100.00
29385;BME280;16367;48.736;9.218;2022-11-18T08:50:50;-23397.84;;;7.25;100.00
29385;BME280;16367;48.736;9.218;2022-11-18T08:52:53;-23401.50;;;7.37;100.00
29385;BME280;16367;48.736;9.218;2022-11-18T08:54:56;-23396.72;;;7.22;100.00
29385;BME280;16367;48.736;9.218;2022-11-18T08:56:58;-23398.00;;;7.26;100.00
29385;BME280;16367;48.736;9.218;2022-11-18T08:59:01;-23396.09;;;7.20;100.00
29385;BME280;16367;48.736;9.218;2022-11-18T09:01:06;-23397.22;;;7.23;100.00
29385;BME280;16367;48.736;9.218;2022-11-18T09:03:09;-23395.78;;;7.19;100.00
29385;BME280;16367;48.736;9.218;2022-11-18T09:05:12;-23401.03;;;7.35;100.00
29385;BME280;16367;48.736;9.218;2022-11-18T09:07:15;-23394.19;;;7.14;100.00
29385;BME280;16367;48.736;9.218;2022-11-18T09:09:18;-23396.25;;;7.20;100.00
29385;BME280;16367;48.736;9.218;2022-11-18T09:11:23;-23394.50;;;7.15;100.00
29385;BME280;16367;48.736;9.218;2022-11-18T09:13:27;-23397.38;;;7.24;100.00
29385;BME280;16367;48.736;9.218;2022-11-18T09:15:50;-23396.41;;;7.21;100.00
29385;BME280;16367;48.736;9.218;2022-11-18T09:17:55;-23394.81;;;7.16;100.00
29385;BME280;16367;48.736;9.218;2022-11-18T09:19:58;-23392.59;;;7.09;100.00
29385;BME280;16367;48.736;9.218;2022-11-18T09:22:00;-23398.47;;;7.27;100.00
29385;BME280;16367;48.736;9.218;2022-11-18T09:24:04;-23400.53;;;7.34;100.00
29385;BME280;16367;48.736;9.218;2022-11-18T09:26:09;-23401.81;;;7.38;100.00
29385;BME280;16367;48.736;9.218;2022-11-18T09:28:12;-23401.34;;;7.36;100.00
29385;BME280;16367;48.736;9.218;2022-11-18T09:30:15;-23398.00;;;7.26;100.00
29385;BME280;16367;48.736;9.218;2022-11-18T09:32:18;-23398.31;;;7.27;100.00
29385;BME280;16367;48.736;9.218;2022-11-18T09:34:22;-23397.38;;;7.24;100.00
29385;BME280;16367;48.736;9.218;2022-11-18T09:36:26;-23397.06;;;7.23;100.00
29385;BME280;16367;48.736;9.218;2022-11-18T09:38:29;-23396.72;;;7.22;100.00
29385;BME280;16367;48.736;9.218;2022-11-18T09:40:33;-23394.81;;;7.16;100.00
29385;BME280;16367;48.736;9.218;2022-11-18T09:42:49;-23390.69;;;7.03;100.00
29385;BME280;16367;48.736;9.218;2022-11-18T09:45:04;-23388.00;;;6.94;100.00
29385;BME280;16367;48.736;9.218;2022-11-18T09:47:24;-23395.31;;;7.17;100.00
29385;BME280;16367;48.736;9.218;2022-11-18T09:49:31;-23395.16;;;7.17;100.00
29385;BME280;16367;48.736;9.218;2022-11-18T09:51:38;-23398.47;;;7.27;100.00
29385;BME280;16367;48.736;9.218;2022-11-18T09:53:43;-23396.72;;;7.22;100.00
29385;BME280;16367;48.736;9.218;2022-11-18T09:55:46;-23399.44;;;7.30;100.00
29385;BME280;16367;48.736;9.218;2022-11-18T09:57:51;-23406.09;;;7.51;100.00
29385;BME280;16367;48.736;9.218;2022-11-18T09:59:56;-23403.09;;;7.42;100.00
29385;BME280;16367;48.736;9.218;2022-11-18T10:02:05;-23406.91;;;7.54;100.00
29385;BME280;16367;48.736;9.218;2022-11-18T10:04:17;-23415.63;;;7.82;100.00
29385;BME280;16367;48.736;9.218;2022-11-18T10:06:23;-23404.03;;;7.45;100.00
29385;BME280;16367;48.736;9.218;2022-11-18T10:08:30;-23409.44;;;7.62;100.00
29385;BME280;16367;48.736;9.218;2022-11-18T10:10:40;-23404.69;;;7.47;100.00
29385;BME280;16367;48.736;9.218;2022-11-18T10:12:50;-23406.91;;;7.54;100.00
29385;BME280;16367;48.736;9.218;2022-11-18T10:15:04;-23411.81;;;7.70;100.00
29385;BME280;16367;48.736;9.218;2022-11-18T10:17:21;-23410.72;;;7.66;100.00
29385;BME280;16367;48.736;9.218;2022-11-18T10:19:31;-23412.78;;;7.73;100.00
29385;BME280;16367;48.736;9.218;2022-11-18T10:21:45;-23411.03;;;7.67;100.00
29385;BME280;16367;48.736;9.218;2022-11-18T10:23:53;-23414.53;;;7.78;100.00
29385;BME280;16367;48.736;9.218;2022-11-18T10:25:59;-23414.22;;;7.77;100.00
29385;BME280;16367;48.736;9.218;2022-11-18T10:28:15;-23413.72;;;7.76;100.00
29385;BME280;16367;48.736;9.218;2022-11-18T10:30:20;-23418.19;;;7.90;100.00
29385;BME280;16367;48.736;9.218;2022-11-18T10:32:23;-23412.63;;;7.72;100.00
29385;BME280;16367;48.736;9.218;2022-11-18T10:34:26;-23419.94;;;7.95;100.00
29385;BME280;16367;48.736;9.218;2022-11-18T10:36:30;-23412.78;;;7.73;100.00
29385;BME280;16367;48.736;9.218;2022-11-18T10:38:36;-23417.38;;;7.87;100.00
29385;BME280;16367;48.736;9.218;2022-11-18T10:40:43;-23413.56;;;7.75;100.00
29385;BME280;16367;48.736;9.218;2022-11-18T10:42:47;-23416.44;;;7.84;100.00
29385;BME280;16367;48.736;9.218;2022-11-18T10:44:49;-23422.16;;;8.02;100.00
29385;BME280;16367;48.736;9.218;2022-11-18T10:46:52;-23428.34;;;8.22;100.00
29385;BME280;16367;48.736;9.218;2022-11-18T10:49:13;-23431.34;;;8.32;100.00
29385;BME280;16367;48.736;9.218;2022-11-18T10:51:21;-23438.81;;;8.55;100.00
29385;BME280;16367;48.736;9.218;2022-11-18T10:53:29;-23432.16;;;8.34;100.00
29385;BME280;16367;48.736;9.218;2022-11-18T10:55:34;-23442.94;;;8.68;100.00
29385;BME280;16367;48.736;9.218;2022-11-18T10:57:39;-23437.06;;;8.50;100.00
29385;BME280;16367;48.736;9.218;2022-11-18T10:59:46;-23448.03;;;8.84;100.00